Weather Data

Pearl Creek Farm: 8878 N Farm Road 75, Walnut Grove MO 65770

<== Previous Day (Wednesday 08 Jan 2020) | Next Day (Friday 10 Jan 2020) ==>

Summary Precipitation Data For Thursday 09 January 2020

ElementValueUnits
Precipitation0"
Notes(none)
SourcePearl Creek Farm

Summary Temperature Data For Thursday 09 January 2020

ElementValueUnits
High Temperature58 oF
Low Temperature49 oF
Average Temperature53 oF
High Humidity100 %
Low Humidity41 %
Average Humidity74 %
SourceSpringfield-Branson National Airport (SGF)

Detail Temperature Data For Thursday 09 January 2020

Date / TimeTemp (F)RH (%)Dew Pt (F)Report Date / TimeSource
2020-01-09 00:52:00 49 43 27.0 2021-01-15 18:54:53.841352 Springfield-Branson National Airport (SGF)
2020-01-09 01:52:00 50 43 28.0 2021-01-15 18:54:53.841352 Springfield-Branson National Airport (SGF)
2020-01-09 02:52:00 50 41 27.0 2021-01-15 18:54:53.841352 Springfield-Branson National Airport (SGF)
2020-01-09 03:52:00 50 41 27.0 2021-01-15 18:54:53.841352 Springfield-Branson National Airport (SGF)
2020-01-09 04:52:00 50 43 28.0 2021-01-15 18:54:53.841352 Springfield-Branson National Airport (SGF)
2020-01-09 05:52:00 51 52 34.0 2021-01-15 18:54:53.841352 Springfield-Branson National Airport (SGF)
2020-01-09 06:52:00 51 61 38.0 2021-01-15 18:54:53.841352 Springfield-Branson National Airport (SGF)
2020-01-09 07:52:00 52 66 41.0 2021-01-15 18:54:53.841352 Springfield-Branson National Airport (SGF)
2020-01-09 08:52:00 53 69 43.0 2021-01-15 18:54:53.841352 Springfield-Branson National Airport (SGF)
2020-01-09 09:52:00 55 72 46.0 2021-01-15 18:54:53.841352 Springfield-Branson National Airport (SGF)
2020-01-09 10:52:00 57 69 47.0 2021-01-15 18:54:53.841352 Springfield-Branson National Airport (SGF)
2020-01-09 11:52:00 58 70 48.0 2021-01-15 18:54:53.841352 Springfield-Branson National Airport (SGF)
2020-01-09 12:52:00 57 74 49.0 2021-01-15 18:54:53.841352 Springfield-Branson National Airport (SGF)
2020-01-09 13:52:00 57 74 49.0 2021-01-15 18:54:53.841352 Springfield-Branson National Airport (SGF)
2020-01-09 14:52:00 56 81 50.0 2021-01-15 18:54:53.841352 Springfield-Branson National Airport (SGF)
2020-01-09 15:52:00 53 93 51.0 2021-01-15 18:54:53.841352 Springfield-Branson National Airport (SGF)
2020-01-09 16:52:00 52 97 51.0 2021-01-15 18:54:53.841352 Springfield-Branson National Airport (SGF)
2020-01-09 17:52:00 51 96 50.0 2021-01-15 18:54:53.841352 Springfield-Branson National Airport (SGF)
2020-01-09 18:52:00 51 96 50.0 2021-01-15 18:54:53.841352 Springfield-Branson National Airport (SGF)
2020-01-09 19:52:00 52 97 51.0 2021-01-15 18:54:53.841352 Springfield-Branson National Airport (SGF)
2020-01-09 20:52:00 52 100 52.0 2021-01-15 18:54:53.841352 Springfield-Branson National Airport (SGF)
2020-01-09 21:52:00 53 100 53.0 2021-01-15 18:54:53.841352 Springfield-Branson National Airport (SGF)
2020-01-09 22:52:00 54 100 54.0 2021-01-15 18:54:53.841352 Springfield-Branson National Airport (SGF)
2020-01-09 23:52:00 55 100 55.0 2021-01-15 18:54:53.841352 Springfield-Branson National Airport (SGF)

A total of 24 rows are displayed.